createdAt,value
2022-11-14T00:01:54.991Z,54.20
2022-11-14T00:04:28.262Z,54.20
2022-11-14T00:06:58.798Z,54.30
2022-11-14T00:09:26.906Z,54.40
2022-11-14T00:11:55.021Z,54.20
2022-11-14T00:14:22.949Z,54.40
2022-11-14T00:16:51.019Z,54.50
2022-11-14T00:19:18.911Z,54.40
2022-11-14T00:21:47.192Z,54.50
2022-11-14T00:24:16.782Z,54.50
2022-11-14T00:26:45.028Z,54.50
2022-11-14T00:29:13.131Z,54.60
2022-11-14T00:31:41.058Z,54.50
2022-11-14T00:34:09.131Z,54.70
2022-11-14T00:36:37.721Z,54.70
2022-11-14T00:39:05.814Z,54.70
2022-11-14T00:41:35.156Z,54.70
2022-11-14T00:44:03.667Z,54.70
2022-11-14T00:46:31.574Z,54.60
2022-11-14T00:48:59.873Z,54.80
2022-11-14T00:51:27.770Z,54.80
2022-11-14T00:53:56.162Z,54.80
2022-11-14T00:56:24.079Z,55.00
2022-11-14T00:58:53.739Z,54.90
2022-11-14T01:01:21.755Z,55.00
2022-11-14T01:03:50.659Z,55.00
2022-11-14T01:06:18.661Z,55.00
2022-11-14T01:08:47.172Z,55.00
2022-11-14T01:11:17.526Z,54.90
2022-11-14T01:13:45.882Z,55.10
2022-11-14T01:16:15.113Z,55.00
2022-11-14T01:18:43.122Z,55.00
2022-11-14T01:21:12.872Z,55.00
2022-11-14T01:23:44.294Z,55.00
2022-11-14T01:26:13.485Z,55.10
2022-11-14T01:28:43.633Z,55.00
2022-11-14T01:31:14.394Z,55.20
2022-11-14T01:33:42.412Z,55.10
2022-11-14T01:36:10.986Z,55.20
2022-11-14T01:38:39.032Z,55.30
2022-11-14T01:41:07.583Z,55.40
2022-11-14T01:43:35.564Z,55.40
2022-11-14T01:46:04.791Z,55.40
2022-11-14T01:48:41.528Z,55.20
2022-11-14T01:51:20.049Z,55.30
2022-11-14T01:53:48.844Z,55.30
2022-11-14T01:56:18.010Z,55.40
2022-11-14T01:58:47.509Z,55.60
2022-11-14T02:01:15.800Z,55.30
2022-11-14T02:03:45.724Z,55.50
2022-11-14T02:06:15.400Z,55.40
2022-11-14T02:08:43.260Z,55.50
2022-11-14T02:11:12.212Z,55.50
2022-11-14T02:13:40.071Z,55.60
2022-11-14T02:20:03.637Z,55.60
2022-11-14T02:22:34.302Z,55.60
2022-11-14T02:25:02.227Z,55.70
2022-11-14T02:27:30.317Z,55.50
2022-11-14T02:30:05.505Z,55.50
2022-11-14T02:32:50.991Z,56.10
2022-11-14T02:35:21.623Z,56.10
2022-11-14T02:37:50.961Z,55.60
2022-11-14T02:40:19.460Z,55.40
2022-11-14T02:42:47.282Z,55.30
2022-11-14T02:45:15.181Z,55.40
2022-11-14T02:47:43.119Z,55.50
2022-11-14T02:50:11.195Z,55.30
2022-11-14T02:52:39.071Z,55.50
2022-11-14T02:55:09.030Z,55.20
2022-11-14T02:57:37.209Z,55.20
2022-11-14T03:00:09.941Z,55.40
2022-11-14T03:02:41.424Z,55.40
2022-11-14T03:05:09.711Z,55.30
2022-11-14T03:07:37.497Z,55.40
2022-11-14T03:10:06.473Z,55.40
2022-11-14T03:12:36.131Z,55.30
2022-11-14T03:15:03.996Z,55.60
2022-11-14T03:17:32.462Z,55.60
2022-11-14T03:20:00.240Z,55.60
2022-11-14T03:22:28.414Z,55.40
2022-11-14T03:24:56.379Z,55.40
2022-11-14T03:27:24.243Z,55.60
2022-11-14T03:29:54.011Z,55.40
2022-11-14T03:32:21.941Z,55.30
2022-11-14T03:34:50.282Z,55.50
2022-11-14T03:37:18.159Z,55.50
2022-11-14T03:39:45.977Z,55.60
2022-11-14T03:42:13.864Z,55.50
2022-11-14T03:44:42.431Z,55.60
2022-11-14T03:47:11.752Z,55.60
2022-11-14T03:49:40.190Z,55.60
2022-11-14T03:52:08.148Z,55.60
2022-11-14T03:54:36.463Z,55.70
2022-11-14T03:57:04.613Z,55.60
2022-11-14T03:59:32.963Z,55.60
2022-11-14T04:02:00.839Z,55.60
2022-11-14T04:04:30.563Z,55.60
2022-11-14T04:06:58.603Z,55.70
2022-11-14T04:09:26.640Z,55.70
2022-11-14T04:11:54.555Z,55.60
2022-11-14T04:14:22.900Z,55.60
2022-11-14T04:16:50.785Z,55.70
2022-11-14T04:19:19.351Z,55.70
2022-11-14T04:21:48.619Z,55.80
2022-11-14T04:24:16.964Z,55.80
2022-11-14T04:26:44.833Z,55.70
2022-11-14T04:29:12.850Z,55.80
2022-11-14T04:31:41.343Z,55.90
2022-11-14T04:34:09.300Z,55.80
2022-11-14T04:36:37.149Z,55.80
2022-11-14T04:39:06.676Z,55.70
2022-11-14T04:41:34.946Z,55.80
2022-11-14T04:44:02.932Z,55.70
2022-11-14T04:46:31.358Z,55.80
2022-11-14T04:48:59.276Z,55.70
2022-11-14T04:51:27.621Z,55.70
2022-11-14T04:53:55.314Z,55.80
2022-11-14T04:56:27.032Z,55.80
2022-11-14T04:58:54.883Z,55.60
2022-11-14T05:01:23.303Z,55.70
2022-11-14T05:03:51.187Z,55.70
2022-11-14T05:06:19.103Z,55.80
2022-11-14T05:08:48.446Z,55.80
2022-11-14T05:11:17.062Z,56.50
2022-11-14T05:13:46.528Z,55.80
2022-11-14T05:16:14.463Z,55.70
2022-11-14T05:18:46.858Z,56.00
2022-11-14T05:21:15.524Z,55.90
2022-11-14T05:23:43.420Z,55.90
2022-11-14T05:26:12.598Z,55.90
2022-11-14T05:28:40.533Z,55.80
2022-11-14T05:31:11.028Z,56.00
2022-11-14T05:33:38.715Z,55.90
2022-11-14T05:36:07.126Z,55.80
2022-11-14T05:38:35.019Z,55.70
2022-11-14T05:41:06.472Z,55.90
2022-11-14T05:43:34.848Z,55.70
2022-11-14T05:46:02.886Z,56.40
2022-11-14T05:48:33.010Z,55.60
2022-11-14T05:51:02.048Z,55.70
2022-11-14T05:53:31.401Z,55.80
2022-11-14T05:56:01.538Z,55.80
2022-11-14T05:58:29.759Z,55.90
2022-11-14T06:01:03.806Z,55.90
2022-11-14T06:03:35.012Z,55.90
2022-11-14T06:06:03.213Z,56.00
2022-11-14T06:08:31.738Z,56.20
2022-11-14T06:11:03.246Z,55.90
2022-11-14T06:13:31.148Z,56.00
2022-11-14T06:16:01.187Z,56.10
2022-11-14T06:18:30.014Z,56.00
2022-11-14T06:21:01.762Z,55.90
2022-11-14T06:23:30.226Z,55.90
2022-11-14T06:26:01.583Z,56.10
2022-11-14T06:28:30.867Z,55.90
2022-11-14T06:30:59.964Z,56.00
2022-11-14T06:33:28.290Z,56.10
2022-11-14T06:35:59.863Z,56.00
2022-11-14T06:38:29.156Z,56.00
2022-11-14T06:41:03.401Z,56.10
2022-11-14T06:43:34.053Z,56.10
2022-11-14T06:46:01.927Z,56.20
2022-11-14T06:48:30.481Z,56.20
2022-11-14T06:50:59.476Z,56.00
2022-11-14T06:53:29.625Z,56.20
2022-11-14T06:55:57.977Z,56.00
2022-11-14T06:58:27.942Z,56.10
2022-11-14T07:00:56.730Z,56.10
2022-11-14T07:03:24.791Z,56.20
2022-11-14T07:05:53.234Z,56.20
2022-11-14T07:08:29.950Z,56.00
2022-11-14T07:11:04.451Z,56.20
2022-11-14T07:13:32.434Z,56.30
2022-11-14T07:16:01.033Z,56.10
2022-11-14T07:18:31.295Z,56.10
2022-11-14T07:21:00.679Z,56.30
2022-11-14T07:23:28.444Z,56.20
2022-11-14T07:25:56.615Z,56.20
2022-11-14T07:28:25.708Z,56.10
2022-11-14T07:30:54.047Z,56.30
2022-11-14T07:33:21.969Z,56.10
2022-11-14T07:35:50.274Z,56.30
2022-11-14T07:38:18.348Z,56.40
2022-11-14T07:40:59.243Z,56.30
2022-11-14T07:43:29.617Z,56.30
2022-11-14T07:46:00.833Z,56.40
2022-11-14T07:48:29.264Z,56.10
2022-11-14T07:51:00.540Z,56.20
2022-11-14T07:53:28.545Z,56.30
2022-11-14T07:55:56.863Z,56.00
2022-11-14T07:58:25.061Z,56.20
2022-11-14T08:00:54.682Z,56.20
2022-11-14T08:03:25.383Z,56.10
2022-11-14T08:05:53.168Z,56.40
2022-11-14T08:08:20.897Z,56.40
2022-11-14T08:10:48.690Z,56.20
2022-11-14T08:13:33.414Z,56.20
2022-11-14T08:16:12.428Z,56.20
2022-11-14T08:18:41.260Z,56.20
2022-11-14T08:21:09.151Z,56.00
2022-11-14T08:23:36.958Z,56.10
2022-11-14T08:26:05.384Z,56.20
2022-11-14T08:28:33.594Z,56.80
2022-11-14T08:31:02.741Z,56.00
2022-11-14T08:33:31.923Z,56.10
2022-11-14T08:36:01.925Z,56.00
2022-11-14T08:38:30.099Z,56.00
2022-11-14T08:40:59.834Z,56.00
2022-11-14T08:43:28.212Z,56.00
2022-11-14T08:46:01.471Z,56.00
2022-11-14T08:48:32.787Z,56.20
2022-11-14T08:51:04.027Z,56.00
2022-11-14T08:53:32.179Z,56.00
2022-11-14T08:56:00.267Z,55.80
2022-11-14T08:58:30.871Z,56.00
2022-11-14T09:01:02.853Z,55.90
2022-11-14T09:03:32.737Z,55.90
2022-11-14T09:06:00.715Z,55.90
2022-11-14T09:08:29.800Z,55.90
2022-11-14T09:11:04.823Z,55.80
2022-11-14T09:13:34.088Z,55.80
2022-11-14T09:16:02.137Z,55.80
2022-11-14T09:18:32.705Z,55.90
2022-11-14T09:21:02.096Z,55.70
2022-11-14T09:23:30.471Z,55.80
2022-11-14T09:25:58.649Z,55.70
2022-11-14T09:28:26.676Z,55.90
2022-11-14T09:30:54.698Z,55.70
2022-11-14T09:33:23.012Z,55.90
2022-11-14T09:35:57.098Z,55.80
2022-11-14T09:38:25.044Z,55.70
2022-11-14T09:41:14.273Z,55.70
2022-11-14T09:43:49.352Z,55.90
2022-11-14T09:46:20.696Z,56.00
2022-11-14T09:48:49.187Z,55.80
2022-11-14T09:51:20.625Z,55.70
2022-11-14T09:53:51.268Z,55.50
2022-11-14T09:56:21.695Z,55.60
2022-11-14T09:58:49.983Z,55.70
2022-11-14T10:01:21.573Z,55.80
2022-11-14T10:03:52.158Z,55.70
2022-11-14T10:06:27.577Z,55.50
2022-11-14T10:09:22.183Z,55.60
2022-11-14T10:11:53.361Z,55.60
2022-11-14T10:14:39.713Z,55.60
2022-11-14T10:17:15.309Z,55.60
2022-11-14T10:19:45.414Z,55.40
2022-11-14T10:22:20.446Z,55.50
2022-11-14T10:25:02.734Z,55.30
2022-11-14T10:27:32.124Z,55.40
2022-11-14T10:30:09.505Z,55.20
2022-11-14T10:32:59.300Z,55.40
2022-11-14T10:35:34.977Z,55.40
2022-11-14T10:38:06.665Z,55.30
2022-11-14T10:40:38.020Z,55.30
2022-11-14T10:43:08.627Z,55.40
2022-11-14T10:45:37.864Z,55.40
2022-11-14T10:48:10.952Z,55.10
2022-11-14T10:50:44.165Z,54.80
2022-11-14T10:53:17.158Z,54.70
2022-11-14T10:56:03.160Z,54.30
2022-11-14T10:58:38.410Z,54.20
2022-11-14T11:01:35.004Z,54.20
2022-11-14T11:04:20.391Z,53.80
2022-11-14T11:06:49.320Z,53.30
2022-11-14T11:09:42.175Z,53.20
2022-11-14T11:12:17.149Z,52.90
2022-11-14T11:14:45.314Z,52.70
2022-11-14T11:17:21.762Z,52.50
2022-11-14T11:19:50.064Z,52.20
2022-11-14T11:22:26.600Z,52.30
2022-11-14T11:24:56.272Z,52.00
2022-11-14T11:27:26.654Z,51.70
2022-11-14T11:30:10.027Z,51.50
2022-11-14T11:32:37.880Z,51.80
2022-11-14T11:35:11.865Z,51.10
2022-11-14T11:37:42.945Z,50.80
2022-11-14T11:40:17.336Z,51.70
2022-11-14T11:43:36.633Z,51.90
2022-11-14T11:45:36.704Z,52.00
2022-11-14T11:48:09.593Z,52.00
2022-11-14T11:50:37.566Z,51.80
2022-11-14T11:53:11.383Z,52.70
2022-11-14T11:55:45.298Z,53.10
2022-11-14T11:58:15.386Z,53.50
2022-11-14T12:00:43.779Z,53.00
2022-11-14T12:03:13.181Z,52.40
2022-11-14T12:05:47.429Z,51.60
2022-11-14T12:08:21.292Z,51.10
2022-11-14T12:10:51.036Z,50.70
2022-11-14T12:13:44.781Z,49.80
2022-11-14T12:16:19.607Z,49.60
2022-11-14T12:19:32.997Z,50.00
2022-11-14T12:22:35.650Z,49.90
2022-11-14T12:25:28.861Z,49.20
2022-11-14T12:28:04.773Z,48.90
2022-11-14T12:30:32.732Z,48.70
2022-11-14T12:33:02.356Z,48.30
2022-11-14T12:35:30.858Z,48.40
2022-11-14T12:37:59.075Z,48.10
2022-11-14T12:40:28.941Z,48.30
2022-11-14T12:42:57.366Z,48.00
2022-11-14T12:46:08.051Z,48.10
2022-11-14T12:48:38.480Z,47.80
2022-11-14T12:51:08.052Z,48.80
2022-11-14T12:53:43.211Z,48.60
2022-11-14T12:56:40.786Z,48.20
2022-11-14T12:59:23.143Z,46.20
2022-11-14T13:02:00.493Z,39.10
2022-11-14T13:04:33.723Z,39.80
2022-11-14T13:07:32.732Z,40.60
2022-11-14T13:10:12.728Z,41.00
2022-11-14T13:12:58.673Z,41.40
2022-11-14T13:15:49.120Z,40.80
2022-11-14T13:18:40.959Z,46.20
2022-11-14T13:21:37.035Z,44.60
2022-11-14T13:24:07.826Z,43.30
2022-11-14T13:26:56.397Z,42.70
2022-11-14T13:30:03.083Z,42.80
2022-11-14T13:33:07.462Z,43.70
2022-11-14T13:35:45.853Z,44.20
2022-11-14T13:38:36.692Z,44.70
2022-11-14T13:41:20.141Z,44.50
2022-11-14T13:43:58.262Z,44.60
2022-11-14T13:46:34.136Z,44.80
2022-11-14T13:49:14.691Z,45.50
2022-11-14T13:51:44.404Z,45.90
2022-11-14T13:54:17.452Z,45.80
2022-11-14T13:56:55.691Z,46.00
2022-11-14T13:59:33.934Z,46.10
2022-11-14T14:02:21.219Z,46.20
2022-11-14T14:04:53.638Z,46.50
2022-11-14T14:07:25.434Z,46.90
2022-11-14T14:09:56.861Z,47.20
2022-11-14T14:12:35.571Z,48.20
2022-11-14T14:15:09.493Z,47.80
2022-11-14T14:17:44.144Z,47.80
2022-11-14T14:20:19.891Z,48.00
2022-11-14T14:22:56.980Z,48.20
2022-11-14T14:25:28.443Z,48.30
2022-11-14T14:28:04.904Z,48.50
2022-11-14T14:30:32.781Z,48.60
2022-11-14T14:33:13.496Z,48.90
2022-11-14T14:35:50.493Z,49.30
2022-11-14T14:38:25.660Z,49.60
2022-11-14T14:40:55.157Z,50.00
2022-11-14T14:43:28.569Z,50.50
2022-11-14T14:45:57.223Z,50.70
2022-11-14T14:48:26.254Z,51.00
2022-11-14T14:50:55.671Z,51.30
2022-11-14T14:53:26.436Z,51.60
2022-11-14T14:55:56.157Z,51.80
2022-11-14T14:58:28.252Z,52.00
2022-11-14T15:00:58.568Z,52.30
2022-11-14T15:03:27.467Z,52.40
2022-11-14T15:06:01.900Z,52.50
2022-11-14T15:08:31.897Z,52.60
2022-11-14T15:11:00.409Z,52.80
2022-11-14T15:13:29.483Z,50.40
2022-11-14T15:15:58.084Z,47.80
2022-11-14T15:18:27.423Z,46.80
2022-11-14T15:21:08.623Z,46.30
2022-11-14T15:23:38.107Z,46.00
2022-11-14T15:26:07.542Z,45.40
2022-11-14T15:28:35.381Z,45.60
2022-11-14T15:31:03.987Z,45.30
2022-11-14T15:33:32.990Z,45.50
2022-11-14T15:36:11.020Z,45.70
2022-11-14T15:38:44.736Z,46.10
2022-11-14T15:41:19.096Z,45.80
2022-11-14T15:43:53.045Z,46.10
2022-11-14T15:46:28.881Z,46.40
2022-11-14T15:48:56.956Z,46.40
2022-11-14T15:51:39.953Z,46.60
2022-11-14T15:54:20.437Z,46.70
2022-11-14T15:56:48.661Z,46.60
2022-11-14T15:59:16.578Z,46.90
2022-11-14T16:01:44.813Z,47.20
2022-11-14T16:04:15.000Z,47.30
2022-11-14T16:06:42.896Z,47.40
2022-11-14T16:09:15.587Z,47.40
2022-11-14T16:11:45.213Z,47.60
2022-11-14T16:14:13.562Z,47.90
2022-11-14T16:16:41.491Z,47.80
2022-11-14T16:19:11.251Z,48.20
2022-11-14T16:21:39.222Z,48.60
2022-11-14T16:24:08.056Z,49.60
2022-11-14T16:26:36.140Z,49.30
2022-11-14T16:29:05.556Z,49.10
2022-11-14T16:31:33.469Z,48.90
2022-11-14T16:34:01.781Z,48.80
2022-11-14T16:36:29.680Z,48.90
2022-11-14T16:38:59.109Z,48.80
2022-11-14T16:41:27.033Z,48.70
2022-11-14T16:44:13.628Z,48.70
2022-11-14T16:46:41.752Z,48.80
2022-11-14T16:49:10.506Z,48.80
2022-11-14T16:51:49.135Z,48.80
2022-11-14T16:54:18.224Z,48.90
2022-11-14T16:56:46.270Z,49.00
2022-11-14T16:59:17.559Z,49.00
2022-11-14T17:01:49.379Z,49.20
2022-11-14T17:04:17.341Z,49.20
2022-11-14T17:06:45.259Z,49.30
2022-11-14T17:09:13.819Z,49.30
2022-11-14T17:11:41.787Z,49.50
2022-11-14T17:14:10.129Z,49.60
2022-11-14T17:16:39.579Z,49.60
2022-11-14T17:19:08.682Z,49.60
2022-11-14T17:21:36.747Z,49.80
2022-11-14T17:24:05.496Z,50.00
2022-11-14T17:26:33.406Z,50.00
2022-11-14T17:29:01.277Z,50.00
2022-11-14T17:31:32.587Z,50.00
2022-11-14T17:34:05.994Z,50.10
2022-11-14T17:36:34.063Z,50.30
2022-11-14T17:39:02.037Z,50.30
2022-11-14T17:41:30.179Z,50.30
2022-11-14T17:44:01.836Z,50.50
2022-11-14T17:46:30.333Z,50.60
2022-11-14T17:48:58.945Z,50.60
2022-11-14T17:51:28.926Z,50.70
2022-11-14T17:53:56.832Z,50.80
2022-11-14T17:56:38.060Z,50.80
2022-11-14T17:59:09.356Z,50.90
2022-11-14T18:01:37.820Z,50.90
2022-11-14T18:04:06.702Z,51.00
2022-11-14T18:06:36.296Z,51.00
2022-11-14T18:09:06.195Z,51.20
2022-11-14T18:11:35.917Z,51.10
2022-11-14T18:14:03.840Z,51.10
2022-11-14T18:16:57.361Z,51.40
2022-11-14T18:19:19.943Z,51.40
2022-11-14T18:21:53.596Z,51.50
2022-11-14T18:24:23.665Z,51.60
2022-11-14T18:26:51.832Z,51.60
2022-11-14T18:29:20.319Z,51.60
2022-11-14T18:31:48.638Z,51.80
2022-11-14T18:34:17.086Z,51.80
2022-11-14T18:36:44.841Z,52.00
2022-11-14T18:39:14.094Z,51.90
2022-11-14T18:41:42.092Z,51.80
2022-11-14T18:44:10.057Z,52.10
2022-11-14T18:46:38.889Z,52.00
2022-11-14T18:49:06.839Z,52.00
2022-11-14T18:51:42.457Z,52.20
2022-11-14T18:54:13.281Z,52.20
2022-11-14T18:56:41.324Z,52.20
2022-11-14T18:59:09.350Z,52.30
2022-11-14T19:01:37.201Z,52.40
2022-11-14T19:04:06.280Z,52.60
2022-11-14T19:06:34.943Z,52.40
2022-11-14T19:09:10.629Z,52.50
2022-11-14T19:12:01.135Z,52.60
2022-11-14T19:14:32.462Z,52.70
2022-11-14T19:17:00.941Z,52.60
2022-11-14T19:19:29.270Z,52.70
2022-11-14T19:21:57.649Z,52.90
2022-11-14T19:24:25.752Z,52.90
2022-11-14T19:26:58.258Z,52.80
2022-11-14T19:29:26.322Z,52.90
2022-11-14T19:31:56.788Z,53.00
2022-11-14T19:34:24.830Z,53.00
2022-11-14T19:36:59.765Z,53.10
2022-11-14T19:39:28.639Z,53.10
2022-11-14T19:41:58.395Z,53.20
2022-11-14T19:44:26.778Z,53.10
2022-11-14T19:46:54.917Z,53.20
2022-11-14T19:49:23.466Z,53.30
2022-11-14T19:51:51.547Z,53.30
2022-11-14T19:54:19.839Z,53.20
2022-11-14T19:56:47.840Z,53.30
2022-11-14T19:59:21.589Z,53.40
2022-11-14T20:01:55.867Z,53.40
2022-11-14T20:04:24.065Z,53.50
2022-11-14T20:06:52.550Z,53.50
2022-11-14T20:09:20.738Z,53.50
2022-11-14T20:11:48.750Z,53.60
2022-11-14T20:14:18.508Z,53.50
2022-11-14T20:16:46.852Z,53.60
2022-11-14T20:19:17.488Z,53.60
2022-11-14T20:21:45.525Z,53.70
2022-11-14T20:24:15.783Z,53.70
2022-11-14T20:26:44.178Z,53.70
2022-11-14T20:29:12.753Z,53.80
2022-11-14T20:31:42.246Z,53.90
2022-11-14T20:34:10.838Z,53.90
2022-11-14T20:37:08.604Z,53.80
2022-11-14T20:39:26.985Z,53.80
2022-11-14T20:41:55.025Z,53.80
2022-11-14T20:44:22.966Z,54.00
2022-11-14T20:46:55.777Z,54.10
2022-11-14T20:49:24.040Z,54.10
2022-11-14T20:51:52.558Z,54.20
2022-11-14T20:54:20.624Z,54.10
2022-11-14T20:56:48.910Z,54.20
2022-11-14T20:59:17.266Z,54.20
2022-11-14T21:01:45.250Z,54.20
2022-11-14T21:04:14.832Z,54.20
2022-11-14T21:06:42.824Z,54.10
2022-11-14T21:09:10.990Z,54.20
2022-11-14T21:11:39.024Z,54.30
2022-11-14T21:14:09.443Z,54.30
2022-11-14T21:16:39.096Z,54.40
2022-11-14T21:19:07.476Z,54.30
2022-11-14T21:21:38.408Z,54.20
2022-11-14T21:24:07.132Z,54.40
2022-11-14T21:26:35.841Z,54.50
2022-11-14T21:29:05.364Z,54.50
2022-11-14T21:31:34.856Z,54.40
2022-11-14T21:34:03.672Z,54.60
2022-11-14T21:36:47.519Z,54.60
2022-11-14T21:39:17.714Z,54.60
2022-11-14T21:41:48.541Z,54.50
2022-11-14T21:44:18.128Z,54.60
2022-11-14T21:46:47.224Z,54.60
2022-11-14T21:49:15.369Z,54.70
2022-11-14T21:51:43.523Z,54.60
2022-11-14T21:54:13.599Z,54.70
2022-11-14T21:56:43.124Z,54.80
2022-11-14T21:59:15.294Z,54.90
2022-11-14T22:02:02.462Z,54.90
2022-11-14T22:04:31.464Z,54.80
2022-11-14T22:06:59.605Z,55.00
2022-11-14T22:09:28.631Z,54.80
2022-11-14T22:11:58.042Z,55.00
2022-11-14T22:14:26.053Z,54.80
2022-11-14T22:16:53.928Z,54.80
2022-11-14T22:19:22.301Z,55.00
2022-11-14T22:21:50.310Z,55.00
2022-11-14T22:24:18.655Z,55.00
2022-11-14T22:26:46.528Z,55.00
2022-11-14T22:29:16.523Z,55.00
2022-11-14T22:31:44.302Z,55.10
2022-11-14T22:34:12.697Z,55.10
2022-11-14T22:36:40.643Z,55.30
2022-11-14T22:39:08.556Z,55.10
2022-11-14T22:41:36.537Z,55.10
2022-11-14T22:44:04.846Z,55.10
2022-11-14T22:46:34.197Z,55.00
2022-11-14T22:49:03.774Z,55.10
2022-11-14T22:51:31.806Z,55.10
2022-11-14T22:54:00.105Z,55.20
2022-11-14T22:56:28.555Z,55.10
2022-11-14T22:58:56.366Z,55.20
2022-11-14T23:01:25.568Z,55.20
2022-11-14T23:03:58.610Z,55.30
2022-11-14T23:06:26.524Z,55.30
2022-11-14T23:08:54.808Z,55.20
2022-11-14T23:11:23.760Z,55.20
2022-11-14T23:13:52.376Z,55.10
2022-11-14T23:16:22.007Z,55.30
2022-11-14T23:18:49.984Z,55.30
2022-11-14T23:21:20.642Z,55.70
2022-11-14T23:23:52.971Z,55.10
2022-11-14T23:26:21.347Z,55.20
2022-11-14T23:28:49.252Z,55.10
2022-11-14T23:31:19.409Z,55.30
2022-11-14T23:33:47.550Z,55.10
2022-11-14T23:36:15.592Z,55.10
2022-11-14T23:38:44.995Z,55.20
2022-11-14T23:41:16.629Z,55.20
2022-11-14T23:43:44.702Z,55.20
2022-11-14T23:46:12.682Z,55.10
2022-11-14T23:48:40.609Z,55.10
2022-11-14T23:51:09.626Z,55.00
2022-11-14T23:53:37.472Z,54.80
2022-11-14T23:56:07.238Z,54.90
2022-11-14T23:58:35.281Z,54.90
